createdAt,value
2023-02-11T00:00:29.269Z,23.47
2023-02-11T00:03:03.449Z,21.63
2023-02-11T00:05:36.339Z,23.93
2023-02-11T00:08:09.093Z,22.43
2023-02-11T00:10:46.352Z,23.37
2023-02-11T00:13:19.101Z,22.73
2023-02-11T00:15:52.185Z,23.07
2023-02-11T00:18:26.555Z,22.43
2023-02-11T00:20:59.251Z,22.03
2023-02-11T00:23:32.268Z,21.83
2023-02-11T00:26:06.819Z,17.37
2023-02-11T00:28:39.526Z,24.23
2023-02-11T00:31:12.561Z,22.30
2023-02-11T00:33:47.065Z,16.93
2023-02-11T00:36:20.843Z,22.87
2023-02-11T00:38:55.879Z,21.30
2023-02-11T00:41:29.076Z,22.90
2023-02-11T00:44:01.969Z,22.13
2023-02-11T00:46:34.897Z,22.73
2023-02-11T00:49:09.085Z,22.83
2023-02-11T00:51:41.962Z,22.80
2023-02-11T00:54:14.719Z,22.57
2023-02-11T00:56:47.333Z,23.80
2023-02-11T00:59:20.046Z,22.07
2023-02-11T01:01:52.845Z,22.50
2023-02-11T01:04:27.089Z,24.63
2023-02-11T01:06:59.781Z,21.27
2023-02-11T01:09:32.437Z,23.77
2023-02-11T01:12:14.365Z,23.07
2023-02-11T01:14:47.130Z,23.30
2023-02-11T01:17:19.882Z,22.70
2023-02-11T01:19:53.992Z,25.07
2023-02-11T01:22:26.941Z,23.23
2023-02-11T01:24:59.624Z,21.60
2023-02-11T01:27:32.431Z,20.73
2023-02-11T01:30:08.571Z,20.17
2023-02-11T01:32:41.645Z,18.47
2023-02-11T01:35:15.855Z,22.80
2023-02-11T01:37:48.579Z,22.37
2023-02-11T01:40:21.287Z,21.40
2023-02-11T01:42:54.074Z,22.07
2023-02-11T01:45:46.142Z,18.93
2023-02-11T01:48:21.834Z,23.43
2023-02-11T01:50:57.754Z,23.63
2023-02-11T01:53:48.100Z,18.90
2023-02-11T01:56:39.372Z,20.57
2023-02-11T01:59:14.328Z,23.93
2023-02-11T02:01:49.449Z,19.27
2023-02-11T02:04:27.220Z,22.37
2023-02-11T02:07:07.500Z,21.33
2023-02-11T02:09:41.995Z,23.67
2023-02-11T02:12:14.774Z,24.17
2023-02-11T02:14:47.486Z,24.63
2023-02-11T02:17:27.297Z,19.43
2023-02-11T02:20:21.190Z,21.30
2023-02-11T02:23:11.516Z,21.33
2023-02-11T02:26:02.301Z,20.07
2023-02-11T02:28:49.215Z,22.33
2023-02-11T02:31:32.810Z,26.40
2023-02-11T02:34:08.952Z,22.93
2023-02-11T02:36:44.637Z,22.93
2023-02-11T02:39:23.463Z,21.40
2023-02-11T02:41:57.247Z,20.33
2023-02-11T02:44:32.255Z,23.47
2023-02-11T02:47:05.145Z,23.67
2023-02-11T02:49:41.678Z,25.57
2023-02-11T02:52:27.057Z,24.73
2023-02-11T02:55:13.423Z,15.40
2023-02-11T02:57:56.441Z,22.17
2023-02-11T03:00:34.688Z,25.60
2023-02-11T03:03:16.670Z,25.60
2023-02-11T03:05:54.926Z,24.70
2023-02-11T03:08:31.031Z,24.33
2023-02-11T03:11:04.525Z,22.53
2023-02-11T03:13:38.825Z,23.33
2023-02-11T03:16:14.609Z,23.03
2023-02-11T03:18:49.468Z,25.20
2023-02-11T03:21:26.002Z,25.67
2023-02-11T03:24:01.630Z,23.43
2023-02-11T03:26:36.979Z,20.57
2023-02-11T03:29:15.419Z,25.30
2023-02-11T03:31:52.224Z,26.47
2023-02-11T03:34:28.806Z,24.97
2023-02-11T03:37:05.444Z,25.73
2023-02-11T03:39:40.114Z,21.10
2023-02-11T03:42:14.548Z,26.13
2023-02-11T03:44:51.426Z,25.73
2023-02-11T03:47:25.458Z,24.27
2023-02-11T03:49:59.185Z,25.43
2023-02-11T03:52:33.729Z,23.83
2023-02-11T03:55:08.438Z,25.10
2023-02-11T03:57:41.432Z,26.10
2023-02-11T04:00:14.598Z,25.87
2023-02-11T04:02:49.419Z,26.43
2023-02-11T04:05:22.286Z,28.27
2023-02-11T04:07:56.448Z,27.10
2023-02-11T04:10:29.222Z,27.10
2023-02-11T04:13:02.129Z,25.33
2023-02-11T04:15:34.867Z,28.17
2023-02-11T04:18:07.611Z,26.87
2023-02-11T04:20:40.300Z,26.40
2023-02-11T04:23:14.869Z,24.83
2023-02-11T04:25:47.692Z,26.37
2023-02-11T04:28:20.440Z,25.33
2023-02-11T04:30:53.225Z,28.30
2023-02-11T04:33:26.123Z,28.17
2023-02-11T04:35:59.564Z,28.00
2023-02-11T04:38:33.663Z,27.73
2023-02-11T04:41:06.689Z,28.30
2023-02-11T04:43:39.400Z,28.53
2023-02-11T04:46:12.247Z,29.17
2023-02-11T04:48:44.932Z,29.03
2023-02-11T04:51:17.711Z,28.67
2023-02-11T04:53:54.195Z,25.13
2023-02-11T04:56:27.053Z,27.10
2023-02-11T04:58:59.744Z,30.77
2023-02-11T05:01:32.607Z,30.23
2023-02-11T05:04:05.620Z,28.13
2023-02-11T05:06:41.676Z,28.10
2023-02-11T05:09:16.656Z,30.03
2023-02-11T05:11:49.546Z,30.90
2023-02-11T05:14:22.334Z,28.17
2023-02-11T05:16:58.151Z,28.63
2023-02-11T05:19:31.996Z,28.50
2023-02-11T05:22:04.945Z,29.57
2023-02-11T05:24:39.096Z,31.57
2023-02-11T05:27:11.812Z,29.07
2023-02-11T05:29:44.634Z,30.73
2023-02-11T05:32:17.641Z,30.87
2023-02-11T05:34:50.385Z,31.13
2023-02-11T05:37:23.304Z,28.23
2023-02-11T05:39:57.381Z,31.83
2023-02-11T05:42:30.490Z,27.80
2023-02-11T05:45:03.390Z,32.07
2023-02-11T05:47:36.101Z,31.03
2023-02-11T05:50:09.119Z,31.90
2023-02-11T05:52:46.638Z,24.27
2023-02-11T05:55:21.237Z,30.40
2023-02-11T05:57:53.972Z,33.90
2023-02-11T06:00:29.700Z,33.30
2023-02-11T06:03:04.227Z,30.10
2023-02-11T06:05:39.034Z,32.93
2023-02-11T06:08:14.266Z,33.23
2023-02-11T06:10:51.042Z,29.63
2023-02-11T06:13:23.842Z,32.27
2023-02-11T06:15:57.538Z,31.23
2023-02-11T06:18:36.090Z,32.70
2023-02-11T06:21:09.156Z,31.07
2023-02-11T06:23:42.063Z,33.23
2023-02-11T06:26:19.708Z,33.13
2023-02-11T06:28:52.777Z,28.97
2023-02-11T06:31:27.253Z,29.00
2023-02-11T06:34:00.355Z,28.53
2023-02-11T06:36:34.890Z,29.93
2023-02-11T06:39:07.952Z,31.37
2023-02-11T06:41:42.234Z,42.08
2023-02-11T06:44:23.158Z,37.93
2023-02-11T06:46:56.018Z,32.53
2023-02-11T06:49:29.043Z,33.37
2023-02-11T06:52:01.779Z,25.93
2023-02-11T06:54:34.677Z,28.57
2023-02-11T06:57:08.777Z,35.37
2023-02-11T06:59:41.915Z,28.70
2023-02-11T07:02:14.680Z,33.17
2023-02-11T07:04:47.511Z,28.30
2023-02-11T07:07:20.266Z,35.57
2023-02-11T07:09:54.850Z,36.67
2023-02-11T07:12:31.004Z,35.50
2023-02-11T07:15:03.928Z,21.93
2023-02-11T07:17:36.779Z,29.40
2023-02-11T07:20:12.461Z,32.53
2023-02-11T07:22:47.759Z,26.77
2023-02-11T07:25:21.835Z,36.47
2023-02-11T07:27:58.861Z,29.40
2023-02-11T07:30:31.612Z,30.43
2023-02-11T07:33:08.642Z,34.50
2023-02-11T07:35:42.739Z,33.73
2023-02-11T07:38:15.572Z,29.83
2023-02-11T07:40:48.315Z,29.00
2023-02-11T07:43:22.463Z,30.77
2023-02-11T07:45:55.330Z,34.80
2023-02-11T07:48:28.259Z,28.50
2023-02-11T07:51:06.506Z,32.90
2023-02-11T07:53:39.296Z,32.57
2023-02-11T07:56:12.756Z,35.03
2023-02-11T07:58:47.082Z,34.73
2023-02-11T08:01:22.489Z,34.13
2023-02-11T08:03:55.807Z,30.17
2023-02-11T08:06:29.513Z,32.80
2023-02-11T08:09:05.362Z,33.13
2023-02-11T08:11:38.092Z,32.03
2023-02-11T08:14:12.783Z,32.43
2023-02-11T08:16:45.586Z,34.63
2023-02-11T08:19:18.562Z,30.00
2023-02-11T08:21:51.532Z,28.87
2023-02-11T08:24:24.719Z,33.10
2023-02-11T08:26:57.492Z,34.23
2023-02-11T08:29:31.779Z,34.17
2023-02-11T08:32:04.540Z,32.63
2023-02-11T08:34:37.787Z,34.00
2023-02-11T08:37:10.629Z,25.07
2023-02-11T08:39:46.021Z,36.10
2023-02-11T08:42:18.712Z,30.97
2023-02-11T08:44:52.680Z,32.17
2023-02-11T08:47:25.502Z,31.80
2023-02-11T08:50:00.284Z,33.73
2023-02-11T08:52:33.054Z,26.83
2023-02-11T08:55:05.963Z,32.73
2023-02-11T08:57:38.686Z,30.13
2023-02-11T09:00:13.939Z,29.53
2023-02-11T09:02:46.795Z,22.63
2023-02-11T09:05:19.525Z,26.40
2023-02-11T09:07:52.333Z,28.40
2023-02-11T09:10:25.115Z,33.47
2023-02-11T09:12:59.711Z,33.43
2023-02-11T09:15:34.214Z,35.23
2023-02-11T09:18:07.528Z,29.57
2023-02-11T09:20:40.258Z,28.27
2023-02-11T09:23:12.911Z,33.40
2023-02-11T09:25:45.639Z,32.00
2023-02-11T09:28:18.589Z,31.17
2023-02-11T09:30:55.999Z,33.77
2023-02-11T09:33:28.930Z,32.43
2023-02-11T09:36:01.875Z,28.63
2023-02-11T09:38:35.007Z,29.37
2023-02-11T09:41:08.497Z,31.13
2023-02-11T09:43:45.640Z,26.30
2023-02-11T09:46:21.256Z,24.07
2023-02-11T09:48:55.384Z,31.47
2023-02-11T09:51:34.411Z,29.63
2023-02-11T09:54:13.033Z,27.67
2023-02-11T09:56:45.746Z,26.47
2023-02-11T09:59:21.954Z,29.60
2023-02-11T10:02:01.280Z,31.67
2023-02-11T10:04:42.566Z,21.97
2023-02-11T10:07:20.017Z,19.93
2023-02-11T10:09:57.910Z,28.77
2023-02-11T10:12:40.399Z,27.50
2023-02-11T10:15:19.600Z,23.90
2023-02-11T10:18:00.539Z,27.00
2023-02-11T10:20:34.822Z,28.73
2023-02-11T10:23:11.909Z,30.00
2023-02-11T10:25:45.842Z,31.90
2023-02-11T10:28:22.614Z,29.30
2023-02-11T10:30:58.610Z,30.77
2023-02-11T10:33:35.838Z,28.13
2023-02-11T10:36:08.925Z,28.97
2023-02-11T10:38:41.886Z,27.73
2023-02-11T10:41:17.578Z,29.60
2023-02-11T10:43:50.764Z,28.83
2023-02-11T10:46:26.685Z,25.53
2023-02-11T10:49:00.858Z,27.73
2023-02-11T10:51:34.657Z,24.00
2023-02-11T10:54:14.427Z,27.00
2023-02-11T10:56:50.010Z,17.57
2023-02-11T10:59:27.512Z,23.50
2023-02-11T11:02:01.356Z,27.90
2023-02-11T11:04:38.544Z,27.80
2023-02-11T11:07:16.899Z,23.67
2023-02-11T11:09:51.349Z,25.17
2023-02-11T11:12:32.543Z,26.40
2023-02-11T11:15:16.428Z,23.93
2023-02-11T11:17:49.791Z,18.90
2023-02-11T11:20:27.413Z,26.97
2023-02-11T11:23:17.304Z,20.57
2023-02-11T11:26:00.257Z,22.50
2023-02-11T11:28:38.649Z,23.43
2023-02-11T11:31:18.982Z,26.47
2023-02-11T11:33:52.904Z,25.00
2023-02-11T11:36:35.203Z,19.17
2023-02-11T11:39:18.657Z,22.87
2023-02-11T11:41:52.647Z,17.30
2023-02-11T11:44:27.125Z,23.10
2023-02-11T11:47:21.634Z,23.13
2023-02-11T11:50:12.055Z,22.50
2023-02-11T11:52:49.274Z,20.23
2023-02-11T11:55:23.630Z,20.87
2023-02-11T11:57:56.407Z,20.00
2023-02-11T12:00:34.962Z,22.47
2023-02-11T12:03:21.628Z,20.03
2023-02-11T12:06:01.549Z,20.97
2023-02-11T12:08:40.886Z,15.20
2023-02-11T12:11:18.997Z,23.53
2023-02-11T12:13:59.393Z,21.93
2023-02-11T12:16:36.181Z,19.80
2023-02-11T12:19:26.767Z,14.67
2023-02-11T12:22:06.345Z,14.40
2023-02-11T12:24:54.249Z,14.67
2023-02-11T12:27:42.213Z,12.93
2023-02-11T12:30:22.388Z,12.93
2023-02-11T12:33:00.015Z,17.10
2023-02-11T12:35:38.434Z,17.97
2023-02-11T12:38:26.398Z,18.17
2023-02-11T12:41:10.244Z,19.47
2023-02-11T12:43:43.658Z,18.53
2023-02-11T12:46:32.364Z,17.77
2023-02-11T12:49:21.093Z,14.77
2023-02-11T12:52:01.368Z,14.27
2023-02-11T12:54:38.288Z,14.80
2023-02-11T12:57:17.967Z,16.07
2023-02-11T12:59:56.591Z,17.23
2023-02-11T13:02:32.943Z,16.53
2023-02-11T13:05:12.654Z,14.13
2023-02-11T13:07:51.887Z,17.17
2023-02-11T13:10:27.443Z,16.67
2023-02-11T13:13:32.163Z,16.93
2023-02-11T13:16:07.634Z,16.70
2023-02-11T13:18:45.847Z,17.30
2023-02-11T13:21:23.011Z,10.97
2023-02-11T13:24:00.732Z,16.73
2023-02-11T13:26:37.482Z,17.73
2023-02-11T13:29:16.745Z,14.77
2023-02-11T13:31:56.681Z,17.30
2023-02-11T13:34:54.896Z,15.73
2023-02-11T13:37:29.881Z,14.23
2023-02-11T13:40:03.450Z,16.83
2023-02-11T13:42:48.984Z,16.23
2023-02-11T13:45:29.756Z,12.67
2023-02-11T13:48:08.287Z,15.60
2023-02-11T13:50:47.764Z,13.23
2023-02-11T13:53:21.280Z,14.80
2023-02-11T13:55:55.319Z,14.83
2023-02-11T13:58:37.214Z,15.10
2023-02-11T14:01:11.528Z,13.67
2023-02-11T14:04:21.968Z,13.17
2023-02-11T14:07:33.470Z,13.50
2023-02-11T14:10:06.602Z,12.83
2023-02-11T14:12:39.396Z,13.60
2023-02-11T14:15:22.921Z,8.83
2023-02-11T14:17:56.869Z,14.10
2023-02-11T14:20:48.025Z,12.53
2023-02-11T14:23:27.216Z,11.43
2023-02-11T14:26:05.184Z,10.67
2023-02-11T14:28:44.719Z,12.60
2023-02-11T14:31:19.698Z,13.30
2023-02-11T14:34:07.430Z,13.80
2023-02-11T14:37:00.021Z,12.03
2023-02-11T14:39:41.772Z,11.50
2023-02-11T14:42:18.924Z,12.20
2023-02-11T14:44:52.996Z,10.90
2023-02-11T14:47:30.046Z,11.87
2023-02-11T14:50:02.942Z,11.93
2023-02-11T14:52:38.790Z,7.90
2023-02-11T14:55:17.952Z,10.93
2023-02-11T14:58:08.893Z,11.33
2023-02-11T15:00:57.547Z,13.33
2023-02-11T15:03:39.052Z,12.57
2023-02-11T15:06:17.456Z,8.03
2023-02-11T15:08:57.278Z,11.43
2023-02-11T15:11:32.092Z,10.83
2023-02-11T15:14:09.096Z,12.57
2023-02-11T15:16:46.255Z,9.63
2023-02-11T15:19:22.316Z,11.77
2023-02-11T15:21:55.303Z,11.00
2023-02-11T15:24:30.925Z,11.43
2023-02-11T15:27:04.551Z,10.40
2023-02-11T15:29:38.314Z,10.57
2023-02-11T15:32:16.845Z,12.10
2023-02-11T15:34:50.391Z,12.80
2023-02-11T15:37:24.554Z,8.10
2023-02-11T15:40:13.591Z,9.80
2023-02-11T15:42:55.082Z,10.83
2023-02-11T15:45:32.718Z,9.63
2023-02-11T15:48:17.293Z,10.87
2023-02-11T15:50:51.926Z,8.67
2023-02-11T15:53:26.918Z,11.07
2023-02-11T15:56:06.463Z,9.73
2023-02-11T15:58:39.950Z,10.43
2023-02-11T16:01:13.153Z,10.50
2023-02-11T16:03:51.082Z,11.37
2023-02-11T16:06:24.945Z,8.93
2023-02-11T16:09:00.691Z,12.27
2023-02-11T16:11:35.527Z,10.03
2023-02-11T16:14:21.748Z,8.47
2023-02-11T16:17:00.398Z,7.10
2023-02-11T16:19:33.903Z,10.10
2023-02-11T16:22:09.245Z,9.47
2023-02-11T16:24:42.224Z,9.97
2023-02-11T16:27:22.402Z,9.83
2023-02-11T16:29:55.540Z,8.70
2023-02-11T16:32:30.096Z,9.10
2023-02-11T16:35:02.891Z,9.00
2023-02-11T16:37:35.625Z,8.00
2023-02-11T16:40:16.278Z,9.37
2023-02-11T16:42:50.847Z,9.17
2023-02-11T16:45:23.601Z,7.63
2023-02-11T16:47:56.337Z,6.87
2023-02-11T16:50:29.914Z,6.83
2023-02-11T16:53:06.173Z,8.63
2023-02-11T16:55:38.926Z,7.37
2023-02-11T16:58:13.048Z,7.90
2023-02-11T17:00:46.519Z,6.73
2023-02-11T17:03:24.578Z,7.97
2023-02-11T17:05:59.361Z,8.17
2023-02-11T17:08:32.382Z,8.00
2023-02-11T17:11:05.169Z,25.97
2023-02-11T17:13:39.586Z,13.47
2023-02-11T17:16:17.034Z,12.83
2023-02-11T17:18:50.288Z,10.40
2023-02-11T17:21:27.566Z,8.00
2023-02-11T17:24:01.609Z,7.17
2023-02-11T17:26:35.312Z,8.00
2023-02-11T17:29:10.543Z,8.63
2023-02-11T17:31:43.883Z,8.33
2023-02-11T17:34:17.446Z,8.07
2023-02-11T17:36:50.188Z,7.63
2023-02-11T17:39:22.821Z,6.93
2023-02-11T17:41:55.655Z,8.07
2023-02-11T17:44:29.796Z,7.10
2023-02-11T17:47:02.619Z,7.57
2023-02-11T17:49:35.285Z,8.13
2023-02-11T17:52:08.123Z,7.53
2023-02-11T17:54:40.912Z,7.27
2023-02-11T17:57:13.935Z,7.53
2023-02-11T17:59:51.035Z,7.93
2023-02-11T18:02:23.824Z,8.13
2023-02-11T18:04:57.706Z,8.20
2023-02-11T18:07:30.685Z,7.77
2023-02-11T18:10:03.524Z,7.90
2023-02-11T18:12:36.201Z,8.17
2023-02-11T18:15:10.745Z,8.57
2023-02-11T18:17:43.595Z,7.87
2023-02-11T18:20:18.505Z,8.10
2023-02-11T18:22:51.355Z,7.87
2023-02-11T18:25:24.237Z,7.53
2023-02-11T18:27:57.047Z,7.00
2023-02-11T18:30:31.252Z,7.10
2023-02-11T18:33:07.410Z,7.03
2023-02-11T18:35:40.188Z,7.57
2023-02-11T18:38:13.014Z,7.73
2023-02-11T18:40:50.481Z,6.63
2023-02-11T18:43:23.336Z,8.07
2023-02-11T18:46:00.139Z,7.40
2023-02-11T18:48:32.890Z,7.40
2023-02-11T18:51:09.525Z,7.43
2023-02-11T18:53:43.403Z,7.00
2023-02-11T18:56:19.235Z,6.73
2023-02-11T18:58:52.308Z,6.37
2023-02-11T19:01:27.310Z,7.03
2023-02-11T19:04:02.890Z,6.63
2023-02-11T19:06:37.343Z,7.23
2023-02-11T19:09:11.519Z,6.63
2023-02-11T19:11:50.866Z,7.17
2023-02-11T19:14:24.455Z,7.50
2023-02-11T19:16:59.941Z,8.60
2023-02-11T19:19:33.752Z,7.23
2023-02-11T19:22:10.257Z,7.17
2023-02-11T19:24:43.476Z,7.60
2023-02-11T19:27:16.542Z,7.33
2023-02-11T19:29:51.628Z,7.23
2023-02-11T19:32:25.673Z,7.30
2023-02-11T19:34:58.436Z,8.40
2023-02-11T19:37:32.292Z,7.87
2023-02-11T19:40:05.422Z,7.90
2023-02-11T19:42:38.096Z,8.80
2023-02-11T19:45:11.116Z,8.60
2023-02-11T19:47:47.257Z,7.63
2023-02-11T19:50:23.066Z,8.47
2023-02-11T19:52:56.147Z,8.93
2023-02-11T19:55:28.870Z,8.47
2023-02-11T19:58:03.011Z,7.83
2023-02-11T20:00:35.822Z,8.00
2023-02-11T20:03:09.920Z,8.27
2023-02-11T20:05:47.014Z,7.07
2023-02-11T20:08:19.776Z,8.43
2023-02-11T20:10:52.540Z,7.83
2023-02-11T20:13:25.469Z,8.00
2023-02-11T20:15:58.154Z,7.47
2023-02-11T20:18:32.390Z,8.97
2023-02-11T20:21:08.168Z,8.03
2023-02-11T20:23:41.277Z,7.57
2023-02-11T20:26:14.569Z,7.30
2023-02-11T20:28:50.266Z,8.90
2023-02-11T20:31:23.763Z,8.10
2023-02-11T20:33:58.013Z,8.20
2023-02-11T20:36:32.323Z,7.67
2023-02-11T20:39:06.557Z,8.10
2023-02-11T20:41:40.619Z,7.50
2023-02-11T20:44:13.425Z,8.37
2023-02-11T20:46:48.943Z,8.17
2023-02-11T20:49:24.791Z,7.20
2023-02-11T20:51:58.499Z,8.03
2023-02-11T20:54:31.377Z,7.27
2023-02-11T20:57:04.131Z,7.77
2023-02-11T20:59:36.967Z,7.20
2023-02-11T21:02:12.422Z,7.03
2023-02-11T21:04:46.613Z,7.87
2023-02-11T21:07:19.338Z,6.37
2023-02-11T21:09:52.892Z,6.87
2023-02-11T21:12:25.583Z,6.63
2023-02-11T21:14:58.893Z,7.37
2023-02-11T21:17:31.686Z,7.07
2023-02-11T21:20:06.170Z,6.97
2023-02-11T21:22:39.141Z,6.47
2023-02-11T21:25:12.135Z,6.20
2023-02-11T21:27:45.842Z,6.03
2023-02-11T21:30:23.342Z,7.57
2023-02-11T21:32:56.201Z,6.80
2023-02-11T21:35:32.395Z,7.20
2023-02-11T21:38:05.209Z,6.50
2023-02-11T21:40:38.442Z,6.93
2023-02-11T21:43:11.412Z,6.73
2023-02-11T21:45:44.981Z,7.10
2023-02-11T21:48:18.453Z,7.50
2023-02-11T21:50:52.888Z,6.77
2023-02-11T21:53:25.700Z,6.07
2023-02-11T21:56:05.414Z,6.40
2023-02-11T21:58:38.115Z,9.33
2023-02-11T22:01:12.143Z,5.53
2023-02-11T22:03:45.309Z,7.10
2023-02-11T22:06:21.397Z,6.43
2023-02-11T22:08:55.709Z,6.77
2023-02-11T22:11:28.444Z,7.03
2023-02-11T22:14:01.200Z,5.77
2023-02-11T22:16:34.033Z,6.97
2023-02-11T22:19:07.512Z,6.30
2023-02-11T22:21:43.295Z,7.00
2023-02-11T22:24:17.141Z,7.87
2023-02-11T22:26:49.830Z,6.83
2023-02-11T22:29:22.647Z,6.47
2023-02-11T22:31:55.508Z,6.97
2023-02-11T22:34:28.271Z,6.37
2023-02-11T22:37:02.652Z,6.80
2023-02-11T22:39:35.429Z,6.60
2023-02-11T22:42:08.233Z,7.63
2023-02-11T22:44:40.928Z,7.77
2023-02-11T22:47:13.772Z,6.97
2023-02-11T22:49:46.510Z,7.37
2023-02-11T22:52:22.397Z,7.50
2023-02-11T22:54:55.341Z,6.50
2023-02-11T22:57:29.051Z,7.33
2023-02-11T23:00:01.736Z,7.83
2023-02-11T23:02:34.647Z,6.40
2023-02-11T23:05:07.684Z,7.87
2023-02-11T23:07:41.785Z,7.73
2023-02-11T23:10:14.442Z,7.73
2023-02-11T23:12:47.300Z,7.40
2023-02-11T23:15:19.936Z,8.13
2023-02-11T23:17:52.718Z,7.97
2023-02-11T23:20:27.431Z,7.50
2023-02-11T23:23:01.503Z,8.10
2023-02-11T23:25:34.427Z,7.93
2023-02-11T23:28:07.246Z,8.13
2023-02-11T23:30:41.245Z,8.50
2023-02-11T23:33:14.098Z,8.47
2023-02-11T23:35:46.883Z,8.20
2023-02-11T23:38:21.055Z,7.63
2023-02-11T23:40:53.835Z,7.87
2023-02-11T23:43:26.591Z,7.40
2023-02-11T23:45:59.620Z,8.33
2023-02-11T23:48:32.598Z,7.03
2023-02-11T23:51:05.452Z,7.37
2023-02-11T23:53:40.114Z,8.93
2023-02-11T23:56:15.280Z,8.47
2023-02-11T23:58:48.485Z,7.37
